createdAt,value
2018-05-11T00:00:43.009Z,12.62
2018-05-11T00:01:43.199Z,12.65
2018-05-11T00:02:43.387Z,12.73
2018-05-11T00:03:43.575Z,12.69
2018-05-11T00:04:43.764Z,12.79
2018-05-11T00:05:43.954Z,12.86
2018-05-11T00:06:44.142Z,12.91
2018-05-11T00:07:44.403Z,12.91
2018-05-11T00:08:44.519Z,12.87
2018-05-11T00:09:44.705Z,12.81
2018-05-11T00:10:44.898Z,12.86
2018-05-11T00:11:45.078Z,12.86
2018-05-11T00:12:45.264Z,12.88
2018-05-11T00:13:45.454Z,12.86
2018-05-11T00:14:45.642Z,12.95
2018-05-11T00:15:45.830Z,12.83
2018-05-11T00:16:46.019Z,12.96
2018-05-11T00:17:46.207Z,12.80
2018-05-11T00:18:46.397Z,12.87
2018-05-11T00:19:46.585Z,12.80
2018-05-11T00:20:46.774Z,12.83
2018-05-11T00:21:46.962Z,12.83
2018-05-11T00:22:47.150Z,12.84
2018-05-11T00:23:47.339Z,12.88
2018-05-11T00:24:47.527Z,12.86
2018-05-11T00:25:47.716Z,12.90
2018-05-11T00:26:47.902Z,12.81
2018-05-11T00:27:48.091Z,12.90
2018-05-11T00:28:48.280Z,12.80
2018-05-11T00:29:48.467Z,12.84
2018-05-11T00:30:48.654Z,12.87
2018-05-11T00:31:48.840Z,12.83
2018-05-11T00:32:49.028Z,12.83
2018-05-11T00:33:49.217Z,12.81
2018-05-11T00:34:49.404Z,12.83
2018-05-11T00:35:49.591Z,12.83
2018-05-11T00:36:49.782Z,12.80
2018-05-11T00:37:49.971Z,12.81
2018-05-11T00:38:50.157Z,12.86
2018-05-11T00:39:50.344Z,12.77
2018-05-11T00:40:50.530Z,12.88
2018-05-11T00:41:50.718Z,12.73
2018-05-11T00:42:50.906Z,12.81
2018-05-11T00:43:51.095Z,12.79
2018-05-11T00:44:51.282Z,12.68
2018-05-11T00:45:51.470Z,12.81
2018-05-11T00:46:51.656Z,12.73
2018-05-11T00:47:51.845Z,12.83
2018-05-11T00:48:52.034Z,12.81
2018-05-11T00:49:52.224Z,12.79
2018-05-11T00:50:52.410Z,12.79
2018-05-11T00:51:52.596Z,12.72
2018-05-11T00:52:52.788Z,12.69
2018-05-11T00:53:52.973Z,12.65
2018-05-11T00:54:53.161Z,12.72
2018-05-11T00:55:53.348Z,12.65
2018-05-11T00:56:53.534Z,12.63
2018-05-11T00:57:53.721Z,12.65
2018-05-11T00:58:53.912Z,12.53
2018-05-11T00:59:54.096Z,12.55
2018-05-11T01:00:54.287Z,12.51
2018-05-11T01:01:54.471Z,12.50
2018-05-11T01:03:01.378Z,12.48
2018-05-11T01:03:54.806Z,12.51
2018-05-11T01:04:54.993Z,12.53
2018-05-11T01:05:55.183Z,12.51
2018-05-11T01:06:55.369Z,12.46
2018-05-11T01:07:55.556Z,12.46
2018-05-11T01:08:55.744Z,12.44
2018-05-11T01:09:55.931Z,12.47
2018-05-11T01:10:56.118Z,12.47
2018-05-11T01:11:56.304Z,12.50
2018-05-11T01:12:56.492Z,12.47
2018-05-11T01:13:56.680Z,12.50
2018-05-11T01:14:56.865Z,12.51
2018-05-11T01:15:57.055Z,12.61
2018-05-11T01:16:57.297Z,12.53
2018-05-11T01:17:57.429Z,12.59
2018-05-11T01:18:57.617Z,12.59
2018-05-11T01:19:57.804Z,12.58
2018-05-11T01:20:57.991Z,12.66
2018-05-11T01:21:58.181Z,12.61
2018-05-11T01:22:58.368Z,12.65
2018-05-11T01:23:58.557Z,12.66
2018-05-11T01:24:58.743Z,12.69
2018-05-11T01:25:58.932Z,12.62
2018-05-11T01:26:59.119Z,12.68
2018-05-11T01:27:59.307Z,12.58
2018-05-11T01:28:59.493Z,12.53
2018-05-11T01:29:59.682Z,12.63
2018-05-11T01:30:59.871Z,12.58
2018-05-11T01:32:00.059Z,12.50
2018-05-11T01:33:00.247Z,12.54
2018-05-11T01:34:00.436Z,12.48
2018-05-11T01:35:00.622Z,12.50
2018-05-11T01:36:00.813Z,12.51
2018-05-11T01:37:00.998Z,12.68
2018-05-11T01:38:01.185Z,12.55
2018-05-11T01:39:01.375Z,12.47
2018-05-11T01:40:01.562Z,12.65
2018-05-11T01:41:01.751Z,12.48
2018-05-11T01:42:01.942Z,12.58
2018-05-11T01:43:02.126Z,12.53
2018-05-11T01:44:02.314Z,12.50
2018-05-11T01:45:02.504Z,12.51
2018-05-11T01:46:02.690Z,12.51
2018-05-11T01:47:02.879Z,12.38
2018-05-11T01:48:03.084Z,12.47
2018-05-11T01:49:03.271Z,12.43
2018-05-11T01:50:03.457Z,12.50
2018-05-11T01:51:03.646Z,12.47
2018-05-11T01:52:03.830Z,12.47
2018-05-11T01:53:04.019Z,12.47
2018-05-11T01:54:04.205Z,12.46
2018-05-11T01:55:04.395Z,12.46
2018-05-11T01:56:04.582Z,12.48
2018-05-11T01:57:04.769Z,12.53
2018-05-11T01:58:04.970Z,12.48
2018-05-11T01:59:05.221Z,12.44
2018-05-11T02:00:05.501Z,12.53
2018-05-11T02:01:05.440Z,12.51
2018-05-11T02:02:05.627Z,12.44
2018-05-11T02:03:05.816Z,12.50
2018-05-11T02:04:06.001Z,12.47
2018-05-11T02:05:06.193Z,12.48
2018-05-11T02:06:06.379Z,12.41
2018-05-11T02:07:06.566Z,12.33
2018-05-11T02:08:06.753Z,12.38
2018-05-11T02:09:06.941Z,12.46
2018-05-11T02:10:07.127Z,12.48
2018-05-11T02:11:07.314Z,12.38
2018-05-11T02:12:07.503Z,12.38
2018-05-11T02:13:07.689Z,12.38
2018-05-11T02:14:07.876Z,12.46
2018-05-11T02:15:08.065Z,12.46
2018-05-11T02:16:08.252Z,12.35
2018-05-11T02:17:08.438Z,12.40
2018-05-11T02:18:08.626Z,12.46
2018-05-11T02:19:08.816Z,12.41
2018-05-11T02:20:09.001Z,12.40
2018-05-11T02:21:09.192Z,12.38
2018-05-11T02:22:09.378Z,12.40
2018-05-11T02:23:09.573Z,12.38
2018-05-11T02:24:09.753Z,12.30
2018-05-11T02:25:09.941Z,12.28
2018-05-11T02:26:10.128Z,12.30
2018-05-11T02:27:10.317Z,12.30
2018-05-11T02:28:10.505Z,12.22
2018-05-11T02:29:10.693Z,12.25
2018-05-11T02:30:10.888Z,12.23
2018-05-11T02:31:11.066Z,12.28
2018-05-11T02:32:11.255Z,12.29
2018-05-11T02:33:11.445Z,12.33
2018-05-11T02:34:11.632Z,12.26
2018-05-11T02:35:11.820Z,12.33
2018-05-11T02:36:12.010Z,12.30
2018-05-11T02:37:12.302Z,12.23
2018-05-11T02:38:12.384Z,12.25
2018-05-11T02:39:12.575Z,12.21
2018-05-11T02:40:12.760Z,12.26
2018-05-11T02:41:12.954Z,12.23
2018-05-11T02:42:13.134Z,12.28
2018-05-11T02:43:13.320Z,12.28
2018-05-11T02:44:13.510Z,12.32
2018-05-11T02:45:13.697Z,12.33
2018-05-11T02:46:13.886Z,12.29
2018-05-11T02:47:14.075Z,12.30
2018-05-11T02:48:14.267Z,12.32
2018-05-11T02:49:14.452Z,12.35
2018-05-11T02:50:14.639Z,12.28
2018-05-11T02:51:14.827Z,12.29
2018-05-11T02:52:15.016Z,12.30
2018-05-11T02:53:15.203Z,12.43
2018-05-11T02:54:15.392Z,12.33
2018-05-11T02:55:15.618Z,12.38
2018-05-11T02:56:15.767Z,12.47
2018-05-11T02:57:15.955Z,12.44
2018-05-11T02:58:16.143Z,12.33
2018-05-11T02:59:16.331Z,12.33
2018-05-11T03:00:16.518Z,12.41
2018-05-11T03:01:16.707Z,12.40
2018-05-11T03:02:16.981Z,12.40
2018-05-11T03:03:17.085Z,12.36
2018-05-11T03:04:17.273Z,12.36
2018-05-11T03:05:17.459Z,12.38
2018-05-11T03:06:17.650Z,12.35
2018-05-11T03:07:17.836Z,12.46
2018-05-11T03:08:18.025Z,12.51
2018-05-11T03:09:18.214Z,12.51
2018-05-11T03:10:18.401Z,12.50
2018-05-11T03:11:18.591Z,12.47
2018-05-11T03:12:18.776Z,12.50
2018-05-11T03:13:18.966Z,12.46
2018-05-11T03:14:19.154Z,12.28
2018-05-11T03:15:19.341Z,12.26
2018-05-11T03:16:19.534Z,12.33
2018-05-11T03:17:19.721Z,12.26
2018-05-11T03:18:19.912Z,12.26
2018-05-11T03:19:20.093Z,12.23
2018-05-11T03:20:20.283Z,12.17
2018-05-11T03:21:20.470Z,12.14
2018-05-11T03:22:20.658Z,12.22
2018-05-11T03:23:20.847Z,12.17
2018-05-11T03:24:21.037Z,12.18
2018-05-11T03:25:21.224Z,12.26
2018-05-11T03:26:21.414Z,12.18
2018-05-11T03:27:21.601Z,12.21
2018-05-11T03:28:21.786Z,12.22
2018-05-11T03:29:21.972Z,12.13
2018-05-11T03:30:22.163Z,12.10
2018-05-11T03:31:22.350Z,12.11
2018-05-11T03:32:22.539Z,12.07
2018-05-11T03:33:22.728Z,12.08
2018-05-11T03:34:22.913Z,11.87
2018-05-11T03:35:23.104Z,11.95
2018-05-11T03:36:23.287Z,12.03
2018-05-11T03:37:23.476Z,11.87
2018-05-11T03:38:23.664Z,11.91
2018-05-11T03:39:23.853Z,11.85
2018-05-11T03:40:24.041Z,11.87
2018-05-11T03:41:24.228Z,11.79
2018-05-11T03:42:24.415Z,11.80
2018-05-11T03:43:24.604Z,11.91
2018-05-11T03:44:24.790Z,11.96
2018-05-11T03:45:24.978Z,11.95
2018-05-11T03:46:25.166Z,12.00
2018-05-11T03:47:25.356Z,11.99
2018-05-11T03:48:25.543Z,12.05
2018-05-11T03:49:25.734Z,12.03
2018-05-11T03:50:25.920Z,12.11
2018-05-11T03:51:26.117Z,12.08
2018-05-11T03:52:26.301Z,12.14
2018-05-11T03:53:26.482Z,12.08
2018-05-11T03:54:26.669Z,12.11
2018-05-11T03:55:26.858Z,12.05
2018-05-11T03:56:27.047Z,12.03
2018-05-11T03:57:27.236Z,11.96
2018-05-11T03:58:27.423Z,11.97
2018-05-11T03:59:27.613Z,12.07
2018-05-11T04:00:27.801Z,12.05
2018-05-11T04:01:27.994Z,12.08
2018-05-11T04:02:28.177Z,12.10
2018-05-11T04:03:28.365Z,12.13
2018-05-11T04:04:28.554Z,12.15
2018-05-11T04:05:28.740Z,12.13
2018-05-11T04:06:28.928Z,12.18
2018-05-11T04:07:29.115Z,12.17
2018-05-11T04:08:29.305Z,12.23
2018-05-11T04:09:29.492Z,12.17
2018-05-11T04:10:29.682Z,12.14
2018-05-11T04:11:29.870Z,12.22
2018-05-11T04:12:30.059Z,12.13
2018-05-11T04:13:30.245Z,12.22
2018-05-11T04:14:30.435Z,12.18
2018-05-11T04:15:30.623Z,12.17
2018-05-11T04:16:30.811Z,12.26
2018-05-11T04:17:31.000Z,12.26
2018-05-11T04:18:31.187Z,12.33
2018-05-11T04:19:31.378Z,12.29
2018-05-11T04:20:31.563Z,12.30
2018-05-11T04:21:31.754Z,12.25
2018-05-11T04:22:31.942Z,12.30
2018-05-11T04:23:32.129Z,12.30
2018-05-11T04:24:32.318Z,12.28
2018-05-11T04:25:32.505Z,12.30
2018-05-11T04:26:32.691Z,12.33
2018-05-11T04:27:32.882Z,12.35
2018-05-11T04:28:33.071Z,12.32
2018-05-11T04:29:33.261Z,12.30
2018-05-11T04:30:33.452Z,12.38
2018-05-11T04:31:33.639Z,12.30
2018-05-11T04:32:33.829Z,12.28
2018-05-11T04:33:34.017Z,12.30
2018-05-11T04:34:34.208Z,12.32
2018-05-11T04:35:34.392Z,12.26
2018-05-11T04:36:34.579Z,12.30
2018-05-11T04:37:34.769Z,12.29
2018-05-11T04:38:34.957Z,12.33
2018-05-11T04:39:35.144Z,12.33
2018-05-11T04:40:35.332Z,12.33
2018-05-11T04:41:35.519Z,12.36
2018-05-11T04:42:35.710Z,12.35
2018-05-11T04:43:35.895Z,12.29
2018-05-11T04:44:36.083Z,12.33
2018-05-11T04:45:36.271Z,12.33
2018-05-11T04:46:36.459Z,12.35
2018-05-11T04:47:36.646Z,12.29
2018-05-11T04:48:36.835Z,12.48
2018-05-11T04:49:37.023Z,12.46
2018-05-11T04:50:37.212Z,12.43
2018-05-11T04:51:37.399Z,12.50
2018-05-11T04:52:37.588Z,12.47
2018-05-11T04:53:37.778Z,12.47
2018-05-11T04:54:37.965Z,12.48
2018-05-11T04:55:38.154Z,12.43
2018-05-11T04:56:38.345Z,12.48
2018-05-11T04:57:38.532Z,12.47
2018-05-11T04:58:38.721Z,12.55
2018-05-11T04:59:38.910Z,12.66
2018-05-11T05:00:39.098Z,12.48
2018-05-11T05:01:39.288Z,12.66
2018-05-11T05:02:39.476Z,12.73
2018-05-11T05:03:39.664Z,12.59
2018-05-11T05:04:39.851Z,12.62
2018-05-11T05:05:40.040Z,12.59
2018-05-11T05:06:40.229Z,12.66
2018-05-11T05:07:40.419Z,12.65
2018-05-11T05:08:40.606Z,12.65
2018-05-11T05:09:40.794Z,12.68
2018-05-11T05:10:40.982Z,12.71
2018-05-11T05:11:41.171Z,12.72
2018-05-11T05:12:41.360Z,12.73
2018-05-11T05:13:41.557Z,12.81
2018-05-11T05:14:41.737Z,12.69
2018-05-11T05:15:41.928Z,12.69
2018-05-11T05:16:42.115Z,12.69
2018-05-11T05:17:42.303Z,12.76
2018-05-11T05:18:42.492Z,12.73
2018-05-11T05:19:42.682Z,12.73
2018-05-11T05:20:42.869Z,12.71
2018-05-11T05:21:43.064Z,12.66
2018-05-11T05:22:43.251Z,12.77
2018-05-11T05:23:43.439Z,12.91
2018-05-11T05:24:43.629Z,12.84
2018-05-11T05:25:43.816Z,12.68
2018-05-11T05:26:44.006Z,12.69
2018-05-11T05:27:44.194Z,12.50
2018-05-11T05:28:44.384Z,12.63
2018-05-11T05:29:44.573Z,12.68
2018-05-11T05:30:44.761Z,12.72
2018-05-11T05:31:44.955Z,12.59
2018-05-11T05:32:45.139Z,12.63
2018-05-11T05:33:45.328Z,12.59
2018-05-11T05:34:45.517Z,12.66
2018-05-11T05:35:45.706Z,12.68
2018-05-11T05:36:45.897Z,12.66
2018-05-11T05:37:46.085Z,12.83
2018-05-11T05:38:46.275Z,12.87
2018-05-11T05:39:46.463Z,12.84
2018-05-11T05:40:46.651Z,12.76
2018-05-11T05:41:46.840Z,12.80
2018-05-11T05:42:47.030Z,12.96
2018-05-11T05:43:47.216Z,13.11
2018-05-11T05:44:47.405Z,13.21
2018-05-11T05:45:47.655Z,13.72
2018-05-11T05:46:47.786Z,13.79
2018-05-11T05:47:47.977Z,14.26
2018-05-11T05:48:48.169Z,14.16
2018-05-11T05:49:48.356Z,13.83
2018-05-11T05:50:48.546Z,13.71
2018-05-11T05:51:48.734Z,13.55
2018-05-11T05:52:48.926Z,13.51
2018-05-11T05:53:49.199Z,13.32
2018-05-11T05:54:49.304Z,13.42
2018-05-11T05:55:49.496Z,13.29
2018-05-11T05:56:49.688Z,13.46
2018-05-11T05:57:49.878Z,13.67
2018-05-11T05:58:50.074Z,13.36
2018-05-11T05:59:50.268Z,13.49
2018-05-11T06:00:50.451Z,13.54
2018-05-11T06:01:50.640Z,13.65
2018-05-11T06:02:50.832Z,13.83
2018-05-11T06:03:51.024Z,13.63
2018-05-11T06:04:51.213Z,13.71
2018-05-11T06:05:51.406Z,13.82
2018-05-11T06:06:51.596Z,14.00
2018-05-11T06:07:51.786Z,13.90
2018-05-11T06:08:51.977Z,14.00
2018-05-11T06:09:52.175Z,14.30
2018-05-11T06:10:52.410Z,14.41
2018-05-11T06:11:52.551Z,14.74
2018-05-11T06:12:52.742Z,14.71
2018-05-11T06:13:52.937Z,15.17
2018-05-11T06:14:53.128Z,15.12
2018-05-11T06:15:53.317Z,14.49
2018-05-11T06:16:53.511Z,14.38
2018-05-11T06:17:53.703Z,14.34
2018-05-11T06:18:53.898Z,14.64
2018-05-11T06:19:54.092Z,15.17
2018-05-11T06:20:54.287Z,14.83
2018-05-11T06:21:54.480Z,14.69
2018-05-11T06:22:54.672Z,14.87
2018-05-11T06:23:54.866Z,15.23
2018-05-11T06:24:55.111Z,15.32
2018-05-11T06:25:55.254Z,15.32
2018-05-11T06:26:55.452Z,15.25
2018-05-11T06:27:55.647Z,15.44
2018-05-11T06:28:55.840Z,15.72
2018-05-11T06:29:56.039Z,15.91
2018-05-11T06:30:56.232Z,15.80
2018-05-11T06:31:56.428Z,15.83
2018-05-11T06:32:56.623Z,15.91
2018-05-11T06:33:56.819Z,15.83
2018-05-11T06:34:57.017Z,15.70
2018-05-11T06:35:57.215Z,16.26
2018-05-11T06:36:57.411Z,16.43
2018-05-11T06:37:57.609Z,15.59
2018-05-11T06:38:57.807Z,16.22
2018-05-11T06:39:58.006Z,15.69
2018-05-11T06:40:58.203Z,15.72
2018-05-11T06:41:58.399Z,16.02
2018-05-11T06:42:58.600Z,16.34
2018-05-11T06:43:58.798Z,16.59
2018-05-11T06:44:58.994Z,16.88
2018-05-11T06:45:59.231Z,16.70
2018-05-11T06:46:59.393Z,15.98
2018-05-11T06:47:59.589Z,15.60
2018-05-11T06:48:59.787Z,15.51
2018-05-11T06:49:59.988Z,15.63
2018-05-11T06:51:00.182Z,15.91
2018-05-11T06:52:00.384Z,16.58
2018-05-11T06:53:00.575Z,16.98
2018-05-11T06:54:00.770Z,17.09
2018-05-11T06:55:00.975Z,16.99
2018-05-11T06:56:01.168Z,16.88
2018-05-11T06:57:01.363Z,17.02
2018-05-11T06:58:01.561Z,17.39
2018-05-11T06:59:01.759Z,17.04
2018-05-11T07:00:01.958Z,16.88
2018-05-11T07:01:02.155Z,16.74
2018-05-11T07:02:02.351Z,16.55
2018-05-11T07:03:02.549Z,16.32
2018-05-11T07:04:02.747Z,16.32
2018-05-11T07:05:02.941Z,16.28
2018-05-11T07:06:03.156Z,16.34
2018-05-11T07:07:03.383Z,16.40
2018-05-11T07:08:03.648Z,15.91
2018-05-11T07:09:03.775Z,15.78
2018-05-11T07:10:03.971Z,15.91
2018-05-11T07:11:04.168Z,15.84
2018-05-11T07:12:04.365Z,15.63
2018-05-11T07:13:04.558Z,16.36
2018-05-11T07:14:04.755Z,16.92
2018-05-11T07:15:04.950Z,17.63
2018-05-11T07:16:05.146Z,18.11
2018-05-11T07:17:05.341Z,18.67
2018-05-11T07:18:05.537Z,18.89
2018-05-11T07:19:05.732Z,19.35
2018-05-11T07:20:05.927Z,18.64
2018-05-11T07:21:06.129Z,17.73
2018-05-11T07:22:06.321Z,17.97
2018-05-11T07:23:06.525Z,18.03
2018-05-11T07:24:06.715Z,18.23
2018-05-11T07:25:06.914Z,18.60
2018-05-11T07:26:07.111Z,18.20
2018-05-11T07:27:07.309Z,17.68
2018-05-11T07:28:07.509Z,17.73
2018-05-11T07:29:07.706Z,18.20
2018-05-11T07:30:07.905Z,18.33
2018-05-11T07:31:08.105Z,18.51
2018-05-11T07:32:08.307Z,18.67
2018-05-11T07:33:08.505Z,17.84
2018-05-11T07:34:08.706Z,17.99
2018-05-11T07:35:08.906Z,18.78
2018-05-11T07:36:09.105Z,18.85
2018-05-11T07:37:09.307Z,19.41
2018-05-11T07:38:09.505Z,19.72
2018-05-11T07:39:09.707Z,19.22
2018-05-11T07:40:09.911Z,17.52
2018-05-11T07:41:10.107Z,17.69
2018-05-11T07:42:10.309Z,17.69
2018-05-11T07:43:10.568Z,17.83
2018-05-11T07:44:10.710Z,18.08
2018-05-11T07:45:10.912Z,18.68
2018-05-11T07:46:11.115Z,19.22
2018-05-11T07:47:11.314Z,19.97
2018-05-11T07:48:11.514Z,20.52
2018-05-11T07:49:11.717Z,20.68
2018-05-11T07:50:11.918Z,19.63
2018-05-11T07:51:12.120Z,19.67
2018-05-11T07:52:12.323Z,18.96
2018-05-11T07:53:12.524Z,19.08
2018-05-11T07:54:12.728Z,19.20
2018-05-11T07:55:12.925Z,19.00
2018-05-11T07:56:13.127Z,19.01
2018-05-11T07:57:13.329Z,18.27
2018-05-11T07:58:13.530Z,17.76
2018-05-11T07:59:13.731Z,16.98
2018-05-11T08:00:13.932Z,15.98
2018-05-11T08:01:14.136Z,15.68
2018-05-11T08:02:14.336Z,15.77
2018-05-11T08:03:14.535Z,15.70
2018-05-11T08:04:14.735Z,16.05
2018-05-11T08:05:14.934Z,16.55
2018-05-11T08:06:15.134Z,16.55
2018-05-11T08:07:15.334Z,16.40
2018-05-11T08:08:15.531Z,16.59
2018-05-11T08:09:15.729Z,16.95
2018-05-11T08:10:15.927Z,17.13
2018-05-11T08:11:16.124Z,16.91
2018-05-11T08:12:16.322Z,17.01
2018-05-11T08:13:16.519Z,16.14
2018-05-11T08:14:16.784Z,16.22
2018-05-11T08:15:16.913Z,16.40
2018-05-11T08:16:17.109Z,17.24
2018-05-11T08:17:17.305Z,17.57
2018-05-11T08:18:17.503Z,17.76
2018-05-11T08:19:17.698Z,17.78
2018-05-11T08:20:17.894Z,17.71
2018-05-11T08:21:18.103Z,17.65
2018-05-11T08:22:18.286Z,18.11
2018-05-11T08:23:18.482Z,17.57
2018-05-11T08:24:18.679Z,17.71
2018-05-11T08:25:18.873Z,17.54
2018-05-11T08:26:19.068Z,17.04
2018-05-11T08:27:19.262Z,17.13
2018-05-11T08:28:19.459Z,16.92
2018-05-11T08:29:19.653Z,17.04
2018-05-11T08:30:19.849Z,17.25
2018-05-11T08:31:20.045Z,17.37
2018-05-11T08:32:20.239Z,16.91
2018-05-11T08:33:20.434Z,16.69
2018-05-11T08:34:20.630Z,16.57
2018-05-11T08:35:20.831Z,16.55
2018-05-11T08:36:21.025Z,16.49
2018-05-11T08:37:21.219Z,16.39
2018-05-11T08:38:21.416Z,16.22
2018-05-11T08:39:21.608Z,16.34
2018-05-11T08:40:21.799Z,16.34
2018-05-11T08:41:21.996Z,16.52
2018-05-11T08:42:22.189Z,16.76
2018-05-11T08:43:22.383Z,16.79
2018-05-11T08:44:22.576Z,16.98
2018-05-11T08:45:22.770Z,17.76
2018-05-11T08:46:22.993Z,17.75
2018-05-11T08:47:23.157Z,17.35
2018-05-11T08:48:23.353Z,16.95
2018-05-11T08:49:23.543Z,16.92
2018-05-11T08:50:23.737Z,16.74
2018-05-11T08:51:23.932Z,17.06
2018-05-11T08:52:24.126Z,17.71
2018-05-11T08:53:24.322Z,17.68
2018-05-11T08:54:24.516Z,17.45
2018-05-11T08:55:24.709Z,17.19
2018-05-11T08:56:24.904Z,17.62
2018-05-11T08:57:25.098Z,17.94
2018-05-11T08:58:25.292Z,17.78
2018-05-11T08:59:25.488Z,18.01
2018-05-11T09:00:25.682Z,18.18
2018-05-11T09:01:25.877Z,17.99
2018-05-11T09:02:26.073Z,18.31
2018-05-11T09:03:26.269Z,17.72
2018-05-11T09:04:26.465Z,17.63
2018-05-11T09:05:26.660Z,16.90
2018-05-11T09:06:26.856Z,16.88
2018-05-11T09:07:27.051Z,16.72
2018-05-11T09:08:27.248Z,16.57
2018-05-11T09:09:27.444Z,16.36
2018-05-11T09:10:27.638Z,16.28
2018-05-11T09:11:27.835Z,16.39
2018-05-11T09:12:28.032Z,16.36
2018-05-11T09:13:28.225Z,16.76
2018-05-11T09:14:28.422Z,17.17
2018-05-11T09:15:28.615Z,17.66
2018-05-11T09:16:28.811Z,17.78
2018-05-11T09:17:29.011Z,18.56
2018-05-11T09:18:29.240Z,19.16
2018-05-11T09:19:29.397Z,19.08
2018-05-11T09:20:29.593Z,19.31
2018-05-11T09:21:29.864Z,19.27
2018-05-11T09:22:29.986Z,18.23
2018-05-11T09:23:30.182Z,17.66
2018-05-11T09:24:30.376Z,18.26
2018-05-11T09:25:30.572Z,19.50
2018-05-11T09:26:30.771Z,20.30
2018-05-11T09:27:30.970Z,20.61
2018-05-11T09:28:31.158Z,20.08
2018-05-11T09:29:31.355Z,19.32
2018-05-11T09:30:31.552Z,18.79
2018-05-11T09:31:31.749Z,18.96
2018-05-11T09:32:31.945Z,19.53
2018-05-11T09:33:32.141Z,18.83
2018-05-11T09:34:32.338Z,18.20
2018-05-11T09:35:32.538Z,18.03
2018-05-11T09:36:32.732Z,18.71
2018-05-11T09:37:32.928Z,19.31
2018-05-11T09:38:33.128Z,19.27
2018-05-11T09:39:33.359Z,19.35
2018-05-11T09:40:33.518Z,19.13
2018-05-11T09:41:33.717Z,18.46
2018-05-11T09:42:33.911Z,17.65
2018-05-11T09:43:34.109Z,17.65
2018-05-11T09:44:34.305Z,17.97
2018-05-11T09:45:34.505Z,17.88
2018-05-11T09:46:34.700Z,18.43
2018-05-11T09:47:34.896Z,19.34
2018-05-11T09:48:35.094Z,18.85
2018-05-11T09:49:35.369Z,18.68
2018-05-11T09:50:35.482Z,18.74
2018-05-11T09:51:35.679Z,17.97
2018-05-11T09:52:35.878Z,18.02
2018-05-11T09:53:36.071Z,17.79
2018-05-11T09:54:36.267Z,18.11
2018-05-11T09:55:36.464Z,18.56
2018-05-11T09:56:36.661Z,18.46
2018-05-11T09:57:36.858Z,18.20
2018-05-11T09:58:37.053Z,18.06
2018-05-11T09:59:37.250Z,18.71
2018-05-11T10:00:37.448Z,19.42
2018-05-11T10:01:37.662Z,18.76
2018-05-11T10:02:37.840Z,18.66
2018-05-11T10:03:38.038Z,17.97
2018-05-11T10:04:38.236Z,18.34
2018-05-11T10:05:38.432Z,18.54
2018-05-11T10:06:38.628Z,18.45
2018-05-11T10:07:38.823Z,18.41
2018-05-11T10:08:39.020Z,17.88
2018-05-11T10:09:39.217Z,18.03
2018-05-11T10:10:39.417Z,18.17
2018-05-11T10:11:39.616Z,17.94
2018-05-11T10:12:39.806Z,18.33
2018-05-11T10:13:40.001Z,18.33
2018-05-11T10:14:40.197Z,18.51
2018-05-11T10:15:40.392Z,18.76
2018-05-11T10:16:40.588Z,19.05
2018-05-11T10:17:40.789Z,19.32
2018-05-11T10:18:40.980Z,19.35
2018-05-11T10:19:41.174Z,19.26
2018-05-11T10:20:41.393Z,19.24
2018-05-11T10:21:41.564Z,18.70
2018-05-11T10:22:41.759Z,19.04
2018-05-11T10:23:41.954Z,18.98
2018-05-11T10:24:42.152Z,19.19
2018-05-11T10:25:42.344Z,19.08
2018-05-11T10:26:42.538Z,18.96
2018-05-11T10:27:42.731Z,19.50
2018-05-11T10:28:42.942Z,19.47
2018-05-11T10:29:43.127Z,19.94
2018-05-11T10:30:43.318Z,20.32
2018-05-11T10:31:43.516Z,20.67
2018-05-11T10:32:43.708Z,20.79
2018-05-11T10:33:43.912Z,21.16
2018-05-11T10:34:44.101Z,20.67
2018-05-11T10:35:44.294Z,19.89
2018-05-11T10:36:44.491Z,20.09
2018-05-11T10:37:44.685Z,20.53
2018-05-11T10:38:44.880Z,20.89
2018-05-11T10:39:45.133Z,21.00
2018-05-11T10:40:45.273Z,20.63
2018-05-11T10:41:45.466Z,20.64
2018-05-11T10:42:45.666Z,20.60
2018-05-11T10:43:45.857Z,20.82
2018-05-11T10:44:46.051Z,20.85
2018-05-11T10:45:46.246Z,21.05
2018-05-11T10:46:46.440Z,21.22
2018-05-11T10:47:46.636Z,21.28
2018-05-11T10:48:46.896Z,20.86
2018-05-11T10:49:47.025Z,21.19
2018-05-11T10:50:47.220Z,21.65
2018-05-11T10:51:47.417Z,21.65
2018-05-11T10:52:47.621Z,21.63
2018-05-11T10:53:47.808Z,21.35
2018-05-11T10:54:48.004Z,20.49
2018-05-11T10:55:48.197Z,19.90
2018-05-11T10:56:48.393Z,19.75
2018-05-11T10:57:48.586Z,20.29
2018-05-11T10:58:48.783Z,20.64
2018-05-11T10:59:48.977Z,20.68
2018-05-11T11:00:49.171Z,20.95
2018-05-11T11:01:49.367Z,21.16
2018-05-11T11:02:49.562Z,21.28
2018-05-11T11:03:49.759Z,21.35
2018-05-11T11:04:49.954Z,21.32
2018-05-11T11:05:50.150Z,21.26
2018-05-11T11:06:50.347Z,21.47
2018-05-11T11:07:50.540Z,21.63
2018-05-11T11:08:50.733Z,21.66
2018-05-11T11:09:50.928Z,21.55
2018-05-11T11:10:51.123Z,21.60
2018-05-11T11:11:51.320Z,21.77
2018-05-11T11:12:51.514Z,21.98
2018-05-11T11:13:51.710Z,22.19
2018-05-11T11:14:51.904Z,22.19
2018-05-11T11:15:52.101Z,21.98
2018-05-11T11:16:52.295Z,21.53
2018-05-11T11:17:52.491Z,20.85
2018-05-11T11:18:52.686Z,21.07
2018-05-11T11:19:52.902Z,21.20
2018-05-11T11:20:53.076Z,21.67
2018-05-11T11:21:53.271Z,21.20
2018-05-11T11:22:53.467Z,20.25
2018-05-11T11:23:53.660Z,20.17
2018-05-11T11:24:53.854Z,19.87
2018-05-11T11:25:54.060Z,20.39
2018-05-11T11:26:54.248Z,20.39
2018-05-11T11:27:54.440Z,20.52
2018-05-11T11:28:54.637Z,20.56
2018-05-11T11:29:54.829Z,20.25
2018-05-11T11:30:55.025Z,19.47
2018-05-11T11:31:55.223Z,19.37
2018-05-11T11:32:55.413Z,19.44
2018-05-11T11:33:55.610Z,19.53
2018-05-11T11:34:55.807Z,20.02
2018-05-11T11:35:55.999Z,20.14
2018-05-11T11:36:56.194Z,19.81
2018-05-11T11:37:56.390Z,19.67
2018-05-11T11:38:56.585Z,19.53
2018-05-11T11:39:56.778Z,19.09
2018-05-11T11:40:56.973Z,18.96
2018-05-11T11:41:57.165Z,19.38
2018-05-11T11:42:57.360Z,19.47
2018-05-11T11:43:57.552Z,19.75
2018-05-11T11:44:57.748Z,19.78
2018-05-11T11:45:57.944Z,20.22
2018-05-11T11:46:58.135Z,20.49
2018-05-11T11:47:58.329Z,20.82
2018-05-11T11:48:58.523Z,20.88
2018-05-11T11:49:58.718Z,21.23
2018-05-11T11:50:58.911Z,21.38
2018-05-11T11:51:59.107Z,21.16
2018-05-11T11:52:59.305Z,21.07
2018-05-11T11:53:59.493Z,21.22
2018-05-11T11:54:59.689Z,20.71
2018-05-11T11:55:59.883Z,20.61
2018-05-11T11:57:00.075Z,20.73
2018-05-11T11:58:00.269Z,20.19
2018-05-11T11:59:00.464Z,19.78
2018-05-11T12:00:00.657Z,19.75
2018-05-11T12:01:00.851Z,19.54
2018-05-11T12:02:01.069Z,19.72
2018-05-11T12:03:01.242Z,19.93
2018-05-11T12:04:01.435Z,19.68
2018-05-11T12:05:01.629Z,19.74
2018-05-11T12:06:01.822Z,19.52
2018-05-11T12:07:02.018Z,19.30
2018-05-11T12:08:02.215Z,19.45
2018-05-11T12:09:02.504Z,19.70
2018-05-11T12:10:02.600Z,19.70
2018-05-11T12:11:02.793Z,20.00
2018-05-11T12:12:02.987Z,20.34
2018-05-11T12:13:03.179Z,20.56
2018-05-11T12:14:03.375Z,20.56
2018-05-11T12:15:03.571Z,20.92
2018-05-11T12:16:03.759Z,20.80
2018-05-11T12:17:03.954Z,20.93
2018-05-11T12:18:04.149Z,21.18
2018-05-11T12:19:04.342Z,21.04
2018-05-11T12:20:04.536Z,21.38
2018-05-11T12:21:04.730Z,21.47
2018-05-11T12:22:04.925Z,21.16
2018-05-11T12:23:05.119Z,21.16
2018-05-11T12:24:05.312Z,20.90
2018-05-11T12:25:05.510Z,20.65
2018-05-11T12:26:05.701Z,20.77
2018-05-11T12:27:05.896Z,21.25
2018-05-11T12:28:06.089Z,21.74
2018-05-11T12:29:06.282Z,22.19
2018-05-11T12:30:06.477Z,22.62
2018-05-11T12:31:06.675Z,22.99
2018-05-11T12:32:06.865Z,23.08
2018-05-11T12:33:07.060Z,23.13
2018-05-11T12:34:07.254Z,23.23
2018-05-11T12:35:07.450Z,22.76
2018-05-11T12:36:07.644Z,21.62
2018-05-11T12:37:07.839Z,21.16
2018-05-11T12:38:08.034Z,20.79
2018-05-11T12:39:08.230Z,20.92
2018-05-11T12:40:08.424Z,21.32
2018-05-11T12:41:08.650Z,21.51
2018-05-11T12:42:08.814Z,21.25
2018-05-11T12:43:09.009Z,21.18
2018-05-11T12:44:09.207Z,20.65
2018-05-11T12:45:09.398Z,20.44
2018-05-11T12:46:09.594Z,20.55
2018-05-11T12:47:09.789Z,20.63
2018-05-11T12:48:09.986Z,21.07
2018-05-11T12:49:10.180Z,21.63
2018-05-11T12:50:10.375Z,22.11
2018-05-11T12:51:10.569Z,22.64
2018-05-11T12:52:10.765Z,22.85
2018-05-11T12:53:10.961Z,22.66
2018-05-11T12:54:11.158Z,22.77
2018-05-11T12:55:11.353Z,23.13